Kindred, ND (58051)

10:40 PM CDT on August 02, 2015 (GMT -0500)
PFS Kindred | | Change Station
CLOSE
Current Station
Personal Weather Station
Location: Kindred, ND
Elevation: 935 ft
Nearby Weather Stations

Elev 935 ft 46.63 °N, 97.02 °W | Updated 9 seconds ago

Clear
Clear
59.5 °F
Feels Like 59.5 °F
N
2.0
Wind Variable Wind from SW
Gusts 2.0 mph

Today
High -- | Low -- °F
--% Chance of Precip.
Yesterday
High -- | Low -- °F
Precip. -- in
6:09 AM 8:58 PM
Waning Gibbous, 90% visible
Pressure 29.85 in
Visibility 10.0 miles
Clouds Clear
Dew Point 52 °F
Humidity 77%
Rainfall 0.00 in
Snow Depth Not available.
UV 0 out of 12
Pollen 8.20 out of 12
Air Quality Not available.
Flu Activity Not available.
METAR KFAR 030253Z 29006KT 10SM CLR 18/11 A2985 RMK AO2 SLP106 T01780111 53004

More Conditions Fewer Conditions

Pressure 29.85 in
Visibility 10.0 miles
Clouds Clear
Dew Point 52 °F
Humidity 77%
Rainfall 0.00 in
Snow Depth Not available.
UV 0 out of 12
Pollen 8.20 out of 12
Air Quality Not available.
Flu Activity Not available.
METAR KFAR 030253Z 29006KT 10SM CLR 18/11 A2985 RMK AO2 SLP106 T01780111 53004

More Conditions Fewer Conditions

10-Day Weather Forecast

×

Almanac

Astronomy

Aug. 02, 2015 Rise Set
Actual Time
Civil Twilight
Nautical Twilight
Astronomical Twilight
Moon
Length of Visible Light
Length of Day
Tomorrow will be .
, % of the Moon is Illuminated

Today's Extremes

State Highs State Lows

Community

WunderPhotos

Upload Photos

1,843,565 photos uploaded!

WunderBlogs® & News

Nearby

Air Quality

  Air Quality AQ Index Pollutant
Not available.

Snow Depth

Station Depth Elevation

Earthquake Activity

City Distance Mag. Time & Date
Minimum magnitude displayed is 2.5.

Coastal Water Temperatures

Place Temperature

Stations

Nearby Weather Stations

Station Location Temp. Windchill Dew Point Humidity Wind Precip. Elev Updated Type